GLO1615 SBCG-SBCY
Flight info
| Callsign | GLO1615 |
|---|---|
| Flight time | 0h 45m |
| Altitude | 36000 |
| Route | KOXAL UZ63 TOSAR/N0463F350 |
| Aircraft | B738/M-SDE2E3FGHIRWXY/LB1 |
Departure
| Time | 2026-04-23 19:16 |
|---|---|
| Airport | Campo Grande Airport (SBCG) |
Arrival
| Time | 2026-04-23 20:01 |
|---|---|
| Airport | Várzea Grande–Marechal Rondon International Airport (SBCY) |
| Time | Latitude | Longitude | Altitude | Speed | Heading |
|---|---|---|---|---|---|
| 2026-04-23 18:39 | -20.45799 | -54.66970 | 1838 ft | 0 kts | 354° |
| 2026-04-23 19:02 | -20.45808 | -54.66970 | 1865 ft | 4 kts | 354° |
| 2026-04-23 19:02 | -20.45834 | -54.66965 | 1838 ft | 4 kts | 334° |
| 2026-04-23 19:03 | -20.45848 | -54.66950 | 1838 ft | 2 kts | 274° |
| 2026-04-23 19:03 | -20.45848 | -54.66923 | 1838 ft | 4 kts | 265° |
| 2026-04-23 19:03 | -20.45846 | -54.66899 | 1838 ft | 1 kts | 264° |
| 2026-04-23 19:06 | -20.45849 | -54.66930 | 1838 ft | 9 kts | 264° |
| 2026-04-23 19:06 | -20.45858 | -54.67031 | 1838 ft | 18 kts | 264° |
| 2026-04-23 19:06 | -20.45904 | -54.67141 | 1838 ft | 16 kts | 185° |
| 2026-04-23 19:06 | -20.46021 | -54.67131 | 1838 ft | 19 kts | 174° |
| 2026-04-23 19:07 | -20.46174 | -54.67111 | 1838 ft | 26 kts | 173° |
| 2026-04-23 19:07 | -20.46366 | -54.67094 | 1838 ft | 28 kts | 186° |
| 2026-04-23 19:07 | -20.46522 | -54.67193 | 1838 ft | 26 kts | 222° |
| 2026-04-23 19:07 | -20.46652 | -54.67318 | 1838 ft | 24 kts | 221° |
| 2026-04-23 19:08 | -20.46773 | -54.67435 | 1838 ft | 23 kts | 222° |
| 2026-04-23 19:08 | -20.46889 | -54.67547 | 1838 ft | 22 kts | 222° |
| 2026-04-23 19:08 | -20.47002 | -54.67656 | 1838 ft | 22 kts | 222° |
| 2026-04-23 19:08 | -20.47114 | -54.67764 | 1838 ft | 22 kts | 222° |
| 2026-04-23 19:09 | -20.47234 | -54.67878 | 1838 ft | 24 kts | 221° |
| 2026-04-23 19:09 | -20.47367 | -54.68002 | 1840 ft | 26 kts | 221° |
| 2026-04-23 19:09 | -20.47502 | -54.68140 | 1838 ft | 28 kts | 226° |
| 2026-04-23 19:09 | -20.47645 | -54.68285 | 1838 ft | 29 kts | 223° |
| 2026-04-23 19:10 | -20.47746 | -54.68354 | 1838 ft | 9 kts | 154° |
| 2026-04-23 19:10 | -20.47802 | -54.68304 | 1838 ft | 6 kts | 137° |
| 2026-04-23 19:10 | -20.47802 | -54.68303 | 1838 ft | 0 kts | 135° |
| 2026-04-23 19:14 | -20.47805 | -54.68299 | 1838 ft | 4 kts | 125° |
| 2026-04-23 19:14 | -20.47839 | -54.68238 | 1838 ft | 12 kts | 107° |
| 2026-04-23 19:15 | -20.47800 | -54.68169 | 1839 ft | 11 kts | 42° |
| 2026-04-23 19:15 | -20.47727 | -54.68100 | 1839 ft | 22 kts | 41° |
| 2026-04-23 19:15 | -20.47444 | -54.67825 | 1837 ft | 91 kts | 42° |
| 2026-04-23 19:15 | -20.46811 | -54.67214 | 1840 ft | 151 kts | 43° |
| 2026-04-23 19:16 | -20.45962 | -54.66392 | 2291 ft | 168 kts | 43° |
| 2026-04-23 19:16 | -20.45033 | -54.65612 | 3046 ft | 175 kts | 27° |
| 2026-04-23 19:16 | -20.43770 | -54.65383 | 3503 ft | 203 kts | 358° |
| 2026-04-23 19:17 | -20.40670 | -54.65980 | 3982 ft | 252 kts | 344° |
| 2026-04-23 19:17 | -20.38872 | -54.66601 | 4004 ft | 287 kts | 342° |
| 2026-04-23 19:17 | -20.36906 | -54.67323 | 4376 ft | 307 kts | 342° |
| 2026-04-23 19:17 | -20.34858 | -54.68067 | 5092 ft | 312 kts | 343° |
| 2026-04-23 19:18 | -20.32838 | -54.68790 | 6021 ft | 308 kts | 342° |
| 2026-04-23 19:18 | -20.30793 | -54.69507 | 6821 ft | 310 kts | 343° |
| 2026-04-23 19:18 | -20.29418 | -54.69983 | 7196 ft | 315 kts | 343° |
| 2026-04-23 19:18 | -20.26596 | -54.70949 | 8015 ft | 324 kts | 343° |
| 2026-04-23 19:19 | -20.22234 | -54.72426 | 9335 ft | 333 kts | 343° |
| 2026-04-23 19:19 | -20.20768 | -54.72920 | 9781 ft | 336 kts | 343° |
| 2026-04-23 19:20 | -20.16184 | -54.74460 | 10500 ft | 362 kts | 343° |
| 2026-04-23 19:20 | -20.12890 | -54.75564 | 10698 ft | 385 kts | 343° |
| 2026-04-23 19:20 | -20.11148 | -54.76147 | 10876 ft | 392 kts | 343° |
| 2026-04-23 19:20 | -20.07672 | -54.77312 | 11488 ft | 398 kts | 343° |
| 2026-04-23 19:21 | -20.05914 | -54.77902 | 11861 ft | 399 kts | 343° |
| 2026-04-23 19:21 | -20.00583 | -54.79687 | 12928 ft | 404 kts | 343° |
| 2026-04-23 19:21 | -19.97884 | -54.80590 | 13444 ft | 407 kts | 344° |
| 2026-04-23 19:22 | -19.95163 | -54.81500 | 13948 ft | 410 kts | 343° |
| 2026-04-23 19:22 | -19.92430 | -54.82413 | 14443 ft | 413 kts | 343° |
| 2026-04-23 19:22 | -19.86950 | -54.84244 | 15427 ft | 417 kts | 343° |
| 2026-04-23 19:23 | -19.84171 | -54.85171 | 15916 ft | 419 kts | 343° |
| 2026-04-23 19:23 | -19.81376 | -54.86103 | 16375 ft | 421 kts | 343° |
| 2026-04-23 19:23 | -19.78604 | -54.87028 | 16817 ft | 424 kts | 343° |
| 2026-04-23 19:24 | -19.72925 | -54.88923 | 17656 ft | 429 kts | 343° |
| 2026-04-23 19:24 | -19.70068 | -54.89875 | 18075 ft | 431 kts | 343° |
| 2026-04-23 19:24 | -19.64302 | -54.91796 | 18792 ft | 435 kts | 343° |
| 2026-04-23 19:25 | -19.58527 | -54.93718 | 19469 ft | 439 kts | 343° |
| 2026-04-23 19:25 | -19.52663 | -54.95668 | 20103 ft | 443 kts | 343° |
| 2026-04-23 19:26 | -19.46737 | -54.97638 | 20687 ft | 448 kts | 343° |
| 2026-04-23 19:26 | -19.43745 | -54.98632 | 20979 ft | 450 kts | 343° |
| 2026-04-23 19:27 | -19.37783 | -55.00611 | 21531 ft | 453 kts | 343° |
| 2026-04-23 19:27 | -19.28686 | -55.03542 | 22348 ft | 458 kts | 344° |
| 2026-04-23 19:28 | -19.22528 | -55.05378 | 22836 ft | 461 kts | 344° |
| 2026-04-23 19:28 | -19.16328 | -55.07224 | 23301 ft | 464 kts | 344° |
| 2026-04-23 19:29 | -19.13214 | -55.08157 | 23519 ft | 466 kts | 344° |
| 2026-04-23 19:29 | -19.06992 | -55.10030 | 23886 ft | 468 kts | 344° |
| 2026-04-23 19:30 | -19.00716 | -55.11922 | 24287 ft | 469 kts | 344° |
| 2026-04-23 19:30 | -18.97573 | -55.12869 | 24480 ft | 470 kts | 344° |
| 2026-04-23 19:30 | -18.91266 | -55.14769 | 24831 ft | 472 kts | 344° |
| 2026-04-23 19:31 | -18.88105 | -55.15719 | 25000 ft | 473 kts | 344° |
| 2026-04-23 19:31 | -18.84939 | -55.16672 | 25165 ft | 473 kts | 344° |
| 2026-04-23 19:31 | -18.81762 | -55.17627 | 25335 ft | 474 kts | 344° |
| 2026-04-23 19:31 | -18.78588 | -55.18581 | 25503 ft | 475 kts | 344° |
| 2026-04-23 19:32 | -18.75435 | -55.19528 | 25657 ft | 476 kts | 344° |
| 2026-04-23 19:32 | -18.72249 | -55.20484 | 25807 ft | 476 kts | 344° |
| 2026-04-23 19:32 | -18.69051 | -55.21444 | 25975 ft | 477 kts | 344° |
| 2026-04-23 19:32 | -18.65869 | -55.22398 | 26122 ft | 478 kts | 344° |
| 2026-04-23 19:33 | -18.62652 | -55.23363 | 26280 ft | 478 kts | 344° |
| 2026-04-23 19:33 | -18.59476 | -55.24315 | 26429 ft | 479 kts | 344° |
| 2026-04-23 19:33 | -18.53045 | -55.26242 | 26713 ft | 480 kts | 344° |
| 2026-04-23 19:34 | -18.49819 | -55.27208 | 26844 ft | 481 kts | 344° |
| 2026-04-23 19:34 | -18.46593 | -55.28173 | 26967 ft | 482 kts | 344° |
| 2026-04-23 19:34 | -18.40177 | -55.30093 | 27345 ft | 480 kts | 344° |
| 2026-04-23 19:35 | -18.36960 | -55.31055 | 27578 ft | 479 kts | 344° |
| 2026-04-23 19:35 | -18.33751 | -55.32014 | 27781 ft | 478 kts | 344° |
| 2026-04-23 19:35 | -18.30553 | -55.32969 | 27985 ft | 477 kts | 345° |
| 2026-04-23 19:35 | -18.27352 | -55.33925 | 28206 ft | 476 kts | 345° |
| 2026-04-23 19:36 | -18.24158 | -55.34879 | 28435 ft | 475 kts | 345° |
| 2026-04-23 19:36 | -18.21015 | -55.35817 | 28684 ft | 474 kts | 345° |
| 2026-04-23 19:36 | -18.17841 | -55.36763 | 28960 ft | 472 kts | 345° |
| 2026-04-23 19:36 | -18.14683 | -55.37705 | 29231 ft | 471 kts | 345° |
| 2026-04-23 19:37 | -18.11533 | -55.38644 | 29492 ft | 470 kts | 345° |
| 2026-04-23 19:37 | -18.08382 | -55.39583 | 29752 ft | 469 kts | 345° |
| 2026-04-23 19:37 | -18.05239 | -55.40519 | 30024 ft | 468 kts | 345° |
| 2026-04-23 19:37 | -18.02143 | -55.41441 | 30246 ft | 467 kts | 345° |
| 2026-04-23 19:38 | -17.99006 | -55.42375 | 30429 ft | 468 kts | 345° |
| 2026-04-23 19:38 | -17.95866 | -55.43309 | 30621 ft | 468 kts | 345° |
| 2026-04-23 19:38 | -17.92727 | -55.44243 | 30835 ft | 468 kts | 345° |
| 2026-04-23 19:38 | -17.89638 | -55.45162 | 31048 ft | 468 kts | 345° |
| 2026-04-23 19:39 | -17.86506 | -55.46092 | 31246 ft | 468 kts | 345° |
| 2026-04-23 19:39 | -17.83374 | -55.47023 | 31468 ft | 468 kts | 345° |
| 2026-04-23 19:39 | -17.80236 | -55.47957 | 31704 ft | 468 kts | 345° |
| 2026-04-23 19:39 | -17.77098 | -55.48892 | 31904 ft | 468 kts | 344° |
| 2026-04-23 19:40 | -17.73959 | -55.49827 | 32123 ft | 468 kts | 344° |
| 2026-04-23 19:40 | -17.70862 | -55.50749 | 32348 ft | 468 kts | 344° |
| 2026-04-23 19:40 | -17.67724 | -55.51684 | 32574 ft | 468 kts | 344° |
| 2026-04-23 19:40 | -17.64591 | -55.52616 | 32780 ft | 468 kts | 344° |
| 2026-04-23 19:41 | -17.61457 | -55.53548 | 33044 ft | 467 kts | 344° |
| 2026-04-23 19:41 | -17.58325 | -55.54480 | 33308 ft | 467 kts | 344° |
| 2026-04-23 19:41 | -17.55194 | -55.55410 | 33559 ft | 467 kts | 344° |
| 2026-04-23 19:41 | -17.52068 | -55.56339 | 33788 ft | 467 kts | 344° |
| 2026-04-23 19:42 | -17.48980 | -55.57256 | 33901 ft | 468 kts | 344° |
| 2026-04-23 19:42 | -17.42680 | -55.59127 | 33895 ft | 468 kts | 344° |
| 2026-04-23 19:42 | -17.39537 | -55.60062 | 33767 ft | 469 kts | 344° |
| 2026-04-23 19:43 | -17.36387 | -55.61003 | 33476 ft | 472 kts | 344° |
| 2026-04-23 19:43 | -17.33260 | -55.61945 | 33205 ft | 474 kts | 344° |
| 2026-04-23 19:43 | -17.30123 | -55.62886 | 33613 ft | 462 kts | 344° |
| 2026-04-23 19:43 | -17.27043 | -55.63794 | 33897 ft | 460 kts | 344° |
| 2026-04-23 19:44 | -17.23939 | -55.64703 | 33888 ft | 464 kts | 344° |
| 2026-04-23 19:44 | -17.17673 | -55.66541 | 33907 ft | 469 kts | 344° |
| 2026-04-23 19:45 | -17.11405 | -55.68390 | 33901 ft | 471 kts | 344° |
| 2026-04-23 19:45 | -17.05155 | -55.70497 | 33906 ft | 472 kts | 340° |
| 2026-04-23 19:46 | -16.99015 | -55.72985 | 33558 ft | 477 kts | 339° |
| 2026-04-23 19:46 | -16.95944 | -55.74238 | 33002 ft | 470 kts | 339° |
| 2026-04-23 19:46 | -16.92941 | -55.75446 | 32725 ft | 458 kts | 340° |
| 2026-04-23 19:46 | -16.90010 | -55.76610 | 32214 ft | 444 kts | 340° |
| 2026-04-23 19:47 | -16.88091 | -55.77346 | 31479 ft | 445 kts | 342° |
| 2026-04-23 19:47 | -16.84125 | -55.78741 | 29771 ft | 452 kts | 344° |
| 2026-04-23 19:47 | -16.81151 | -55.79740 | 28282 ft | 456 kts | 344° |
| 2026-04-23 19:47 | -16.78114 | -55.80755 | 26827 ft | 460 kts | 343° |
| 2026-04-23 19:48 | -16.75056 | -55.81785 | 25466 ft | 461 kts | 343° |
| 2026-04-23 19:48 | -16.71957 | -55.82680 | 24184 ft | 461 kts | 347° |
| 2026-04-23 19:48 | -16.68864 | -55.83407 | 22892 ft | 460 kts | 349° |
| 2026-04-23 19:48 | -16.65731 | -55.84085 | 21521 ft | 458 kts | 349° |
| 2026-04-23 19:49 | -16.62616 | -55.84747 | 20269 ft | 454 kts | 349° |
| 2026-04-23 19:49 | -16.59545 | -55.85410 | 19147 ft | 448 kts | 349° |
| 2026-04-23 19:49 | -16.56503 | -55.86081 | 18040 ft | 443 kts | 349° |
| 2026-04-23 19:49 | -16.53539 | -55.86747 | 16878 ft | 437 kts | 349° |
| 2026-04-23 19:50 | -16.50605 | -55.87414 | 15883 ft | 427 kts | 349° |
| 2026-04-23 19:50 | -16.47720 | -55.88073 | 14964 ft | 418 kts | 349° |
| 2026-04-23 19:50 | -16.44926 | -55.88714 | 14340 ft | 403 kts | 349° |
| 2026-04-23 19:50 | -16.42262 | -55.89326 | 14057 ft | 380 kts | 349° |
| 2026-04-23 19:51 | -16.39747 | -55.89903 | 13800 ft | 360 kts | 349° |
| 2026-04-23 19:51 | -16.37344 | -55.90453 | 13361 ft | 348 kts | 349° |
| 2026-04-23 19:51 | -16.35005 | -55.90987 | 12712 ft | 343 kts | 349° |
| 2026-04-23 19:51 | -16.32703 | -55.91511 | 12011 ft | 341 kts | 349° |
| 2026-04-23 19:52 | -16.30389 | -55.92038 | 11329 ft | 338 kts | 349° |
| 2026-04-23 19:52 | -16.28093 | -55.92561 | 10676 ft | 336 kts | 349° |
| 2026-04-23 19:52 | -16.25827 | -55.93077 | 10046 ft | 333 kts | 349° |
| 2026-04-23 19:52 | -16.23544 | -55.93598 | 9532 ft | 335 kts | 349° |
| 2026-04-23 19:53 | -16.21308 | -55.94107 | 9211 ft | 330 kts | 349° |
| 2026-04-23 19:53 | -16.19082 | -55.94615 | 8848 ft | 326 kts | 349° |
| 2026-04-23 19:53 | -16.16866 | -55.95120 | 8440 ft | 324 kts | 349° |
| 2026-04-23 19:53 | -16.14666 | -55.95622 | 8036 ft | 323 kts | 349° |
| 2026-04-23 19:54 | -16.12480 | -55.96120 | 7650 ft | 321 kts | 349° |
| 2026-04-23 19:54 | -16.10296 | -55.96617 | 7234 ft | 320 kts | 349° |
| 2026-04-23 19:54 | -16.08125 | -55.97112 | 6882 ft | 317 kts | 349° |
| 2026-04-23 19:54 | -16.05979 | -55.97600 | 6528 ft | 314 kts | 349° |
| 2026-04-23 19:55 | -16.03847 | -55.98086 | 6149 ft | 313 kts | 349° |
| 2026-04-23 19:55 | -16.01748 | -55.98564 | 5755 ft | 312 kts | 349° |
| 2026-04-23 19:55 | -15.99633 | -55.99045 | 5374 ft | 310 kts | 349° |
| 2026-04-23 19:55 | -15.97530 | -55.99523 | 4967 ft | 307 kts | 348° |
| 2026-04-23 19:56 | -15.95457 | -55.99995 | 4372 ft | 303 kts | 348° |
| 2026-04-23 19:56 | -15.93373 | -56.00469 | 3717 ft | 309 kts | 348° |
| 2026-04-23 19:56 | -15.91278 | -56.00945 | 3396 ft | 306 kts | 348° |
| 2026-04-23 19:56 | -15.89238 | -56.01409 | 3127 ft | 302 kts | 347° |
| 2026-04-23 19:57 | -15.87179 | -56.01877 | 2729 ft | 302 kts | 347° |
| 2026-04-23 19:57 | -15.85156 | -56.02337 | 2617 ft | 291 kts | 347° |
| 2026-04-23 19:57 | -15.83220 | -56.02777 | 2570 ft | 278 kts | 347° |
| 2026-04-23 19:57 | -15.81375 | -56.03199 | 2549 ft | 265 kts | 346° |
| 2026-04-23 19:58 | -15.79712 | -56.03878 | 2574 ft | 249 kts | 332° |
| 2026-04-23 19:58 | -15.78252 | -56.04717 | 2574 ft | 231 kts | 331° |
| 2026-04-23 19:58 | -15.76898 | -56.05466 | 2552 ft | 208 kts | 332° |
| 2026-04-23 19:58 | -15.75686 | -56.06115 | 2530 ft | 185 kts | 333° |
| 2026-04-23 19:59 | -15.74586 | -56.06702 | 2381 ft | 168 kts | 332° |
| 2026-04-23 19:59 | -15.73596 | -56.07231 | 2179 ft | 152 kts | 332° |
| 2026-04-23 19:59 | -15.72655 | -56.07735 | 1966 ft | 153 kts | 332° |
| 2026-04-23 19:59 | -15.71718 | -56.08236 | 1770 ft | 149 kts | 332° |
| 2026-04-23 20:00 | -15.70794 | -56.08726 | 1585 ft | 150 kts | 333° |
| 2026-04-23 20:00 | -15.69858 | -56.09232 | 1348 ft | 154 kts | 333° |
| 2026-04-23 20:00 | -15.68928 | -56.09732 | 1188 ft | 146 kts | 334° |
| 2026-04-23 20:00 | -15.68043 | -56.10211 | 1003 ft | 142 kts | 335° |
| 2026-04-23 20:01 | -15.67183 | -56.10662 | 849 ft | 135 kts | 335° |
| 2026-04-23 20:01 | -15.66350 | -56.11108 | 663 ft | 136 kts | 334° |
| 2026-04-23 20:01 | -15.65537 | -56.11538 | 600 ft | 107 kts | 333° |
| 2026-04-23 20:01 | -15.65214 | -56.11718 | 602 ft | 13 kts | 316° |
| 2026-04-23 20:02 | -15.65205 | -56.11776 | 603 ft | 6 kts | 250° |
| 2026-04-23 20:02 | -15.65220 | -56.11813 | 604 ft | 6 kts | 248° |
| 2026-04-23 20:02 | -15.65204 | -56.11847 | 604 ft | 6 kts | 329° |
| 2026-04-23 20:02 | -15.65168 | -56.11866 | 604 ft | 6 kts | 333° |
| 2026-04-23 20:03 | -15.65133 | -56.11885 | 604 ft | 6 kts | 332° |
| 2026-04-23 20:03 | -15.65099 | -56.11903 | 604 ft | 6 kts | 333° |
| 2026-04-23 20:03 | -15.65065 | -56.11922 | 604 ft | 5 kts | 333° |
| 2026-04-23 20:03 | -15.65038 | -56.11946 | 604 ft | 5 kts | 279° |
| 2026-04-23 20:04 | -15.65047 | -56.11974 | 604 ft | 2 kts | 243° |
| 2026-04-23 20:04 | -15.65051 | -56.11981 | 604 ft | 0 kts | 243° |